sensor_id;sensor_type;location;lat;lon;timestamp;pressure;altitude;pressure_sealevel;temperature;humidity
32251;BME280;41295;48.518;9.206;2023-02-13T00:01:43;99048.22;;;3.00;66.32
32251;BME280;41295;48.518;9.206;2023-02-13T00:03:46;99047.09;;;2.88;66.92
32251;BME280;41295;48.518;9.206;2023-02-13T00:05:49;99049.59;;;2.85;67.62
32251;BME280;41295;48.518;9.206;2023-02-13T00:07:51;99051.28;;;2.83;67.52
32251;BME280;41295;48.518;9.206;2023-02-13T00:09:54;99041.81;;;2.82;67.56
32251;BME280;41295;48.518;9.206;2023-02-13T00:11:56;99057.22;;;2.81;67.88
32251;BME280;41295;48.518;9.206;2023-02-13T00:13:59;99048.72;;;2.85;67.53
32251;BME280;41295;48.518;9.206;2023-02-13T00:16:03;99052.75;;;2.73;67.66
32251;BME280;41295;48.518;9.206;2023-02-13T00:18:06;99049.34;;;2.73;67.59
32251;BME280;41295;48.518;9.206;2023-02-13T00:20:10;99049.31;;;2.71;67.75
32251;BME280;41295;48.518;9.206;2023-02-13T00:22:13;99042.41;;;2.72;68.11
32251;BME280;41295;48.518;9.206;2023-02-13T00:24:16;99050.13;;;2.70;68.45
32251;BME280;41295;48.518;9.206;2023-02-13T00:26:19;99046.56;;;2.65;67.92
32251;BME280;41295;48.518;9.206;2023-02-13T00:28:22;99048.16;;;2.60;68.45
32251;BME280;41295;48.518;9.206;2023-02-13T00:30:24;99051.59;;;2.59;68.21
32251;BME280;41295;48.518;9.206;2023-02-13T00:32:28;99056.72;;;2.57;68.29
32251;BME280;41295;48.518;9.206;2023-02-13T00:34:32;99054.00;;;2.52;67.99
32251;BME280;41295;48.518;9.206;2023-02-13T00:36:34;99054.81;;;2.50;68.24
32251;BME280;41295;48.518;9.206;2023-02-13T00:38:39;99060.00;;;2.51;68.42
32251;BME280;41295;48.518;9.206;2023-02-13T00:40:42;99045.31;;;2.47;68.66
32251;BME280;41295;48.518;9.206;2023-02-13T00:42:44;99052.22;;;2.48;68.10
32251;BME280;41295;48.518;9.206;2023-02-13T00:44:47;99053.88;;;2.46;68.07
32251;BME280;41295;48.518;9.206;2023-02-13T00:46:50;99053.00;;;2.46;68.43
32251;BME280;41295;48.518;9.206;2023-02-13T00:48:54;99051.34;;;2.48;68.82
32251;BME280;41295;48.518;9.206;2023-02-13T00:50:56;99046.19;;;2.48;68.72
32251;BME280;41295;48.518;9.206;2023-02-13T00:52:59;99052.25;;;2.50;69.08
32251;BME280;41295;48.518;9.206;2023-02-13T00:55:02;99055.13;;;2.62;68.84
32251;BME280;41295;48.518;9.206;2023-02-13T00:57:05;99055.81;;;2.55;68.96
32251;BME280;41295;48.518;9.206;2023-02-13T00:59:08;99054.88;;;2.53;68.19
32251;BME280;41295;48.518;9.206;2023-02-13T01:01:10;99049.88;;;2.59;67.93
32251;BME280;41295;48.518;9.206;2023-02-13T01:03:13;99051.41;;;2.51;68.43
32251;BME280;41295;48.518;9.206;2023-02-13T01:05:18;99053.06;;;2.49;68.32
32251;BME280;41295;48.518;9.206;2023-02-13T01:07:21;99053.09;;;2.50;68.14
32251;BME280;41295;48.518;9.206;2023-02-13T01:09:23;99052.94;;;2.43;68.33
32251;BME280;41295;48.518;9.206;2023-02-13T01:11:26;99052.03;;;2.40;68.83
32251;BME280;41295;48.518;9.206;2023-02-13T01:13:29;99050.31;;;2.41;68.54
32251;BME280;41295;48.518;9.206;2023-02-13T01:15:32;99057.13;;;2.39;68.69
32251;BME280;41295;48.518;9.206;2023-02-13T01:17:34;99058.09;;;2.43;67.31
32251;BME280;41295;48.518;9.206;2023-02-13T01:19:40;99051.03;;;2.35;67.74
32251;BME280;41295;48.518;9.206;2023-02-13T01:21:44;99055.25;;;2.32;67.10
32251;BME280;41295;48.518;9.206;2023-02-13T01:23:46;99055.19;;;2.28;67.50
32251;BME280;41295;48.518;9.206;2023-02-13T01:25:49;99051.78;;;2.31;67.14
32251;BME280;41295;48.518;9.206;2023-02-13T01:27:52;99049.19;;;2.30;66.77
32251;BME280;41295;48.518;9.206;2023-02-13T01:29:55;99051.69;;;2.26;66.90
32251;BME280;41295;48.518;9.206;2023-02-13T01:31:57;99053.38;;;2.26;67.02
32251;BME280;41295;48.518;9.206;2023-02-13T01:34:00;99046.53;;;2.26;66.76
32251;BME280;41295;48.518;9.206;2023-02-13T01:36:08;99042.88;;;2.18;66.60
32251;BME280;41295;48.518;9.206;2023-02-13T01:38:13;99044.63;;;2.18;66.58
32251;BME280;41295;48.518;9.206;2023-02-13T01:40:15;99041.16;;;2.17;67.44
32251;BME280;41295;48.518;9.206;2023-02-13T01:42:23;99039.47;;;2.18;67.00
32251;BME280;41295;48.518;9.206;2023-02-13T01:44:47;99035.88;;;2.11;66.98
32251;BME280;41295;48.518;9.206;2023-02-13T01:46:50;99041.16;;;2.17;67.70
32251;BME280;41295;48.518;9.206;2023-02-13T01:48:56;99033.34;;;2.12;68.00
32251;BME280;41295;48.518;9.206;2023-02-13T01:51:01;99036.00;;;2.17;67.17
32251;BME280;41295;48.518;9.206;2023-02-13T01:53:07;99029.84;;;2.10;68.31
32251;BME280;41295;48.518;9.206;2023-02-13T01:55:13;99036.63;;;2.07;67.74
32251;BME280;41295;48.518;9.206;2023-02-13T01:57:18;99034.81;;;2.04;68.12
32251;BME280;41295;48.518;9.206;2023-02-13T01:59:26;99037.38;;;2.02;68.25
32251;BME280;41295;48.518;9.206;2023-02-13T02:01:30;99031.44;;;2.05;68.66
32251;BME280;41295;48.518;9.206;2023-02-13T02:03:36;99025.38;;;2.03;68.44
32251;BME280;41295;48.518;9.206;2023-02-13T02:05:40;99027.91;;;2.01;67.76
32251;BME280;41295;48.518;9.206;2023-02-13T02:07:44;99023.72;;;2.05;67.12
32251;BME280;41295;48.518;9.206;2023-02-13T02:09:48;99029.59;;;2.01;67.26
32251;BME280;41295;48.518;9.206;2023-02-13T02:11:59;99034.00;;;2.05;66.92
32251;BME280;41295;48.518;9.206;2023-02-13T02:14:03;99031.44;;;2.05;67.34
32251;BME280;41295;48.518;9.206;2023-02-13T02:16:06;99035.59;;;2.00;66.88
32251;BME280;41295;48.518;9.206;2023-02-13T02:18:12;99026.31;;;2.07;66.87
32251;BME280;41295;48.518;9.206;2023-02-13T02:20:25;99026.81;;;1.93;67.11
32251;BME280;41295;48.518;9.206;2023-02-13T02:25:37;99025.97;;;1.92;67.85
32251;BME280;41295;48.518;9.206;2023-02-13T02:30:47;99024.22;;;1.91;66.98
32251;BME280;41295;48.518;9.206;2023-02-13T02:33:04;99028.34;;;1.85;67.71
32251;BME280;41295;48.518;9.206;2023-02-13T02:35:18;99031.66;;;1.80;68.09
32251;BME280;41295;48.518;9.206;2023-02-13T02:37:42;99035.88;;;1.77;67.07
32251;BME280;41295;48.518;9.206;2023-02-13T02:39:57;99029.88;;;1.78;67.48
32251;BME280;41295;48.518;9.206;2023-02-13T02:42:12;99028.25;;;1.80;67.58
32251;BME280;41295;48.518;9.206;2023-02-13T02:44:31;99032.47;;;1.78;67.79
32251;BME280;41295;48.518;9.206;2023-02-13T02:46:37;99028.97;;;1.76;66.94
32251;BME280;41295;48.518;9.206;2023-02-13T02:49:05;99033.16;;;1.72;67.18
32251;BME280;41295;48.518;9.206;2023-02-13T02:51:32;99030.56;;;1.71;67.46
32251;BME280;41295;48.518;9.206;2023-02-13T02:53:42;99034.84;;;1.72;67.75
32251;BME280;41295;48.518;9.206;2023-02-13T02:55:51;99036.59;;;1.71;69.11
32251;BME280;41295;48.518;9.206;2023-02-13T02:58:02;99038.81;;;1.91;68.64
32251;BME280;41295;48.518;9.206;2023-02-13T03:00:25;99031.34;;;1.68;68.64
32251;BME280;41295;48.518;9.206;2023-02-13T03:02:48;99036.41;;;1.65;69.13
32251;BME280;41295;48.518;9.206;2023-02-13T03:05:15;99039.91;;;1.67;69.18
32251;BME280;41295;48.518;9.206;2023-02-13T03:07:37;99042.34;;;1.62;68.75
32251;BME280;41295;48.518;9.206;2023-02-13T03:09:42;99040.38;;;1.52;68.62
32251;BME280;41295;48.518;9.206;2023-02-13T03:12:07;99036.91;;;1.51;68.38
32251;BME280;41295;48.518;9.206;2023-02-13T03:14:27;99045.41;;;1.49;68.04
32251;BME280;41295;48.518;9.206;2023-02-13T03:16:30;99039.31;;;1.45;69.44
32251;BME280;41295;48.518;9.206;2023-02-13T03:18:52;99045.44;;;1.50;69.17
32251;BME280;41295;48.518;9.206;2023-02-13T03:21:22;99053.06;;;1.47;68.27
32251;BME280;41295;48.518;9.206;2023-02-13T03:23:54;99053.03;;;1.46;68.99
32251;BME280;41295;48.518;9.206;2023-02-13T03:26:10;99054.66;;;1.42;68.35
32251;BME280;41295;48.518;9.206;2023-02-13T03:28:19;99062.31;;;1.40;67.96
32251;BME280;41295;48.518;9.206;2023-02-13T03:30:51;99061.41;;;1.38;68.37
32251;BME280;41295;48.518;9.206;2023-02-13T03:33:04;99064.84;;;1.39;68.25
32251;BME280;41295;48.518;9.206;2023-02-13T03:35:21;99066.50;;;1.37;68.32
32251;BME280;41295;48.518;9.206;2023-02-13T03:37:49;99070.88;;;1.39;68.02
32251;BME280;41295;48.518;9.206;2023-02-13T03:39:59;99061.44;;;1.40;68.31
32251;BME280;41295;48.518;9.206;2023-02-13T03:42:06;99068.56;;;1.50;68.18
32251;BME280;41295;48.518;9.206;2023-02-13T03:44:12;99064.94;;;1.42;67.92
32251;BME280;41295;48.518;9.206;2023-02-13T03:46:18;99066.59;;;1.40;68.77
32251;BME280;41295;48.518;9.206;2023-02-13T03:48:24;99060.59;;;1.39;68.07
32251;BME280;41295;48.518;9.206;2023-02-13T03:50:45;99064.00;;;1.40;68.50
32251;BME280;41295;48.518;9.206;2023-02-13T03:52:52;99067.53;;;1.43;68.60
32251;BME280;41295;48.518;9.206;2023-02-13T03:54:59;99073.56;;;1.44;68.07
32251;BME280;41295;48.518;9.206;2023-02-13T03:57:20;99076.88;;;1.40;68.60
32251;BME280;41295;48.518;9.206;2023-02-13T03:59:42;99071.72;;;1.40;68.83
32251;BME280;41295;48.518;9.206;2023-02-13T04:01:52;99076.06;;;1.41;68.66
32251;BME280;41295;48.518;9.206;2023-02-13T04:03:57;99075.94;;;1.38;68.17
32251;BME280;41295;48.518;9.206;2023-02-13T04:06:07;99067.38;;;1.37;67.89
32251;BME280;41295;48.518;9.206;2023-02-13T04:08:13;99070.00;;;1.39;68.27
32251;BME280;41295;48.518;9.206;2023-02-13T04:10:16;99069.03;;;1.35;68.35
32251;BME280;41295;48.518;9.206;2023-02-13T04:12:20;99074.97;;;1.34;67.72
32251;BME280;41295;48.518;9.206;2023-02-13T04:14:29;99070.72;;;1.35;67.97
32251;BME280;41295;48.518;9.206;2023-02-13T04:16:37;99064.78;;;1.36;67.58
32251;BME280;41295;48.518;9.206;2023-02-13T04:18:41;99065.53;;;1.33;67.50
32251;BME280;41295;48.518;9.206;2023-02-13T04:20:45;99075.06;;;1.36;68.57
32251;BME280;41295;48.518;9.206;2023-02-13T04:22:48;99070.75;;;1.36;68.36
32251;BME280;41295;48.518;9.206;2023-02-13T04:24:52;99067.34;;;1.36;67.47
32251;BME280;41295;48.518;9.206;2023-02-13T04:26:55;99075.91;;;1.36;67.93
32251;BME280;41295;48.518;9.206;2023-02-13T04:28:58;99078.47;;;1.36;68.13
32251;BME280;41295;48.518;9.206;2023-02-13T04:31:00;99073.34;;;1.36;67.45
32251;BME280;41295;48.518;9.206;2023-02-13T04:33:03;99077.66;;;1.37;67.13
32251;BME280;41295;48.518;9.206;2023-02-13T04:35:06;99073.28;;;1.35;67.05
32251;BME280;41295;48.518;9.206;2023-02-13T04:37:09;99079.19;;;1.30;67.68
32251;BME280;41295;48.518;9.206;2023-02-13T04:39:12;99083.47;;;1.30;67.55
32251;BME280;41295;48.518;9.206;2023-02-13T04:41:16;99078.16;;;1.25;66.91
32251;BME280;41295;48.518;9.206;2023-02-13T04:43:18;99073.75;;;1.19;67.12
32251;BME280;41295;48.518;9.206;2023-02-13T04:45:21;99086.56;;;1.18;66.65
32251;BME280;41295;48.518;9.206;2023-02-13T04:47:24;99082.09;;;1.12;66.78
32251;BME280;41295;48.518;9.206;2023-02-13T04:49:26;99076.84;;;1.09;66.82
32251;BME280;41295;48.518;9.206;2023-02-13T04:51:29;99076.00;;;1.08;66.83
32251;BME280;41295;48.518;9.206;2023-02-13T04:53:31;99076.75;;;1.06;66.55
32251;BME280;41295;48.518;9.206;2023-02-13T04:55:34;99081.84;;;1.04;66.66
32251;BME280;41295;48.518;9.206;2023-02-13T04:57:38;99089.59;;;1.06;66.39
32251;BME280;41295;48.518;9.206;2023-02-13T04:59:41;99081.94;;;1.07;66.71
32251;BME280;41295;48.518;9.206;2023-02-13T05:01:43;99083.69;;;1.08;65.66
32251;BME280;41295;48.518;9.206;2023-02-13T05:03:46;99089.66;;;1.07;66.42
32251;BME280;41295;48.518;9.206;2023-02-13T05:05:49;99084.53;;;1.09;65.97
32251;BME280;41295;48.518;9.206;2023-02-13T05:07:51;99090.53;;;1.08;66.41
32251;BME280;41295;48.518;9.206;2023-02-13T05:09:54;99098.28;;;1.10;66.13
32251;BME280;41295;48.518;9.206;2023-02-13T05:11:56;99094.94;;;1.12;67.15
32251;BME280;41295;48.518;9.206;2023-02-13T05:14:00;99096.56;;;1.08;67.20
32251;BME280;41295;48.518;9.206;2023-02-13T05:16:03;99100.88;;;1.11;67.00
32251;BME280;41295;48.518;9.206;2023-02-13T05:18:06;99096.59;;;1.10;67.23
32251;BME280;41295;48.518;9.206;2023-02-13T05:20:10;99095.63;;;1.06;66.43
32251;BME280;41295;48.518;9.206;2023-02-13T05:22:13;99094.75;;;1.06;66.74
32251;BME280;41295;48.518;9.206;2023-02-13T05:24:44;99095.59;;;1.05;66.64
32251;BME280;41295;48.518;9.206;2023-02-13T05:26:47;99098.97;;;1.04;66.91
32251;BME280;41295;48.518;9.206;2023-02-13T05:28:49;99094.69;;;1.04;66.78
32251;BME280;41295;48.518;9.206;2023-02-13T05:31:11;99093.66;;;0.98;67.57
32251;BME280;41295;48.518;9.206;2023-02-13T05:33:14;99092.63;;;0.92;67.20
32251;BME280;41295;48.518;9.206;2023-02-13T05:35:17;99096.91;;;0.92;66.72
32251;BME280;41295;48.518;9.206;2023-02-13T05:37:19;99090.78;;;0.88;66.05
32251;BME280;41295;48.518;9.206;2023-02-13T05:39:22;99096.84;;;0.90;66.00
32251;BME280;41295;48.518;9.206;2023-02-13T05:41:25;99099.38;;;0.89;66.12
32251;BME280;41295;48.518;9.206;2023-02-13T05:43:28;99095.94;;;0.88;65.54
32251;BME280;41295;48.518;9.206;2023-02-13T05:45:30;99090.84;;;0.90;64.97
32251;BME280;41295;48.518;9.206;2023-02-13T05:47:34;99091.69;;;0.89;65.20
32251;BME280;41295;48.518;9.206;2023-02-13T05:49:37;99092.44;;;0.86;65.32
32251;BME280;41295;48.518;9.206;2023-02-13T05:51:40;99088.94;;;0.84;65.67
32251;BME280;41295;48.518;9.206;2023-02-13T05:53:42;99085.56;;;0.85;66.50
32251;BME280;41295;48.518;9.206;2023-02-13T05:55:45;99089.88;;;0.86;66.14
32251;BME280;41295;48.518;9.206;2023-02-13T05:57:48;99086.50;;;0.87;66.05
32251;BME280;41295;48.518;9.206;2023-02-13T05:59:50;99086.50;;;0.87;66.25
32251;BME280;41295;48.518;9.206;2023-02-13T06:01:53;99089.06;;;0.87;65.51
32251;BME280;41295;48.518;9.206;2023-02-13T06:03:57;99087.28;;;0.86;65.85
32251;BME280;41295;48.518;9.206;2023-02-13T06:06:04;99090.66;;;0.83;65.77
32251;BME280;41295;48.518;9.206;2023-02-13T06:08:07;99090.66;;;0.83;66.47
32251;BME280;41295;48.518;9.206;2023-02-13T06:10:10;99083.00;;;0.85;65.53
32251;BME280;41295;48.518;9.206;2023-02-13T06:12:12;99088.13;;;0.85;65.72
32251;BME280;41295;48.518;9.206;2023-02-13T06:14:15;99095.00;;;0.86;66.08
32251;BME280;41295;48.518;9.206;2023-02-13T06:16:18;99095.88;;;0.87;65.27
32251;BME280;41295;48.518;9.206;2023-02-13T06:18:20;99097.53;;;0.84;65.59
32251;BME280;41295;48.518;9.206;2023-02-13T06:20:24;99103.50;;;0.83;65.56
32251;BME280;41295;48.518;9.206;2023-02-13T06:22:27;99095.81;;;0.83;65.79
32251;BME280;41295;48.518;9.206;2023-02-13T06:24:30;99100.94;;;0.83;65.66
32251;BME280;41295;48.518;9.206;2023-02-13T06:26:32;99103.47;;;0.82;65.47
32251;BME280;41295;48.518;9.206;2023-02-13T06:28:35;99103.53;;;0.85;66.03
32251;BME280;41295;48.518;9.206;2023-02-13T06:30:38;99102.63;;;0.83;65.85
32251;BME280;41295;48.518;9.206;2023-02-13T06:32:40;99107.84;;;0.86;65.24
32251;BME280;41295;48.518;9.206;2023-02-13T06:34:43;99105.28;;;0.86;65.24
32251;BME280;41295;48.518;9.206;2023-02-13T06:36:47;99102.66;;;0.84;65.48
32251;BME280;41295;48.518;9.206;2023-02-13T06:38:49;99103.50;;;0.83;65.34
32251;BME280;41295;48.518;9.206;2023-02-13T06:40:52;99105.19;;;0.83;65.86
32251;BME280;41295;48.518;9.206;2023-02-13T06:42:55;99113.72;;;0.82;65.59
32251;BME280;41295;48.518;9.206;2023-02-13T06:44:57;99105.91;;;0.79;65.22
32251;BME280;41295;48.518;9.206;2023-02-13T06:47:00;99117.06;;;0.79;65.45
32251;BME280;41295;48.518;9.206;2023-02-13T06:49:03;99117.06;;;0.79;65.24
32251;BME280;41295;48.518;9.206;2023-02-13T06:51:05;99109.22;;;0.75;65.04
32251;BME280;41295;48.518;9.206;2023-02-13T06:53:09;99115.22;;;0.75;65.62
32251;BME280;41295;48.518;9.206;2023-02-13T06:55:12;99119.47;;;0.73;65.95
32251;BME280;41295;48.518;9.206;2023-02-13T06:57:15;99116.09;;;0.76;65.89
32251;BME280;41295;48.518;9.206;2023-02-13T06:59:18;99118.56;;;0.73;66.38
32251;BME280;41295;48.518;9.206;2023-02-13T07:01:20;99119.34;;;0.70;66.09
32251;BME280;41295;48.518;9.206;2023-02-13T07:03:23;99118.56;;;0.73;65.99
32251;BME280;41295;48.518;9.206;2023-02-13T07:05:25;99127.97;;;0.72;66.45
32251;BME280;41295;48.518;9.206;2023-02-13T07:07:31;99125.34;;;0.70;66.59
32251;BME280;41295;48.518;9.206;2023-02-13T07:09:35;99130.44;;;0.69;66.93
32251;BME280;41295;48.518;9.206;2023-02-13T07:11:38;99123.72;;;0.73;67.08
32251;BME280;41295;48.518;9.206;2023-02-13T07:13:41;99125.13;;;0.90;67.24
32251;BME280;41295;48.518;9.206;2023-02-13T07:15:44;99121.19;;;0.74;68.18
32251;BME280;41295;48.518;9.206;2023-02-13T07:17:46;99125.34;;;0.70;68.96
32251;BME280;41295;48.518;9.206;2023-02-13T07:19:49;99133.88;;;0.69;69.68
32251;BME280;41295;48.518;9.206;2023-02-13T07:21:51;99128.75;;;0.69;69.79
32251;BME280;41295;48.518;9.206;2023-02-13T07:23:54;99131.31;;;0.69;69.72
32251;BME280;41295;48.518;9.206;2023-02-13T07:25:58;99133.16;;;0.74;69.45
32251;BME280;41295;48.518;9.206;2023-02-13T07:28:02;99136.63;;;0.76;69.07
32251;BME280;41295;48.518;9.206;2023-02-13T07:30:06;99132.44;;;0.78;68.96
32251;BME280;41295;48.518;9.206;2023-02-13T07:32:08;99140.22;;;0.81;69.48
32251;BME280;41295;48.518;9.206;2023-02-13T07:34:11;99136.91;;;0.83;69.70
32251;BME280;41295;48.518;9.206;2023-02-13T07:36:13;99136.97;;;0.87;69.36
32251;BME280;41295;48.518;9.206;2023-02-13T07:38:18;99135.38;;;0.90;69.80
32251;BME280;41295;48.518;9.206;2023-02-13T07:40:21;99140.56;;;0.92;70.35
32251;BME280;41295;48.518;9.206;2023-02-13T07:42:25;99136.31;;;0.92;70.25
32251;BME280;41295;48.518;9.206;2023-02-13T07:44:27;99135.53;;;0.95;70.21
32251;BME280;41295;48.518;9.206;2023-02-13T07:46:30;99132.19;;;0.98;70.19
32251;BME280;41295;48.518;9.206;2023-02-13T07:48:33;99138.13;;;0.96;70.18
32251;BME280;41295;48.518;9.206;2023-02-13T07:50:35;99143.38;;;1.00;70.46
32251;BME280;41295;48.518;9.206;2023-02-13T07:52:38;99143.38;;;1.00;70.78
32251;BME280;41295;48.518;9.206;2023-02-13T07:54:40;99146.09;;;1.04;71.37
32251;BME280;41295;48.518;9.206;2023-02-13T07:56:48;99145.22;;;1.04;70.82
32251;BME280;41295;48.518;9.206;2023-02-13T07:58:52;99147.06;;;1.08;71.42
32251;BME280;41295;48.518;9.206;2023-02-13T08:00:54;99146.34;;;1.12;71.04
32251;BME280;41295;48.518;9.206;2023-02-13T08:02:58;99143.84;;;1.15;71.43
32251;BME280;41295;48.518;9.206;2023-02-13T08:05:00;99140.56;;;1.19;71.21
32251;BME280;41295;48.518;9.206;2023-02-13T08:07:03;99144.03;;;1.22;71.65
32251;BME280;41295;48.518;9.206;2023-02-13T08:09:06;99145.06;;;1.27;71.45
32251;BME280;41295;48.518;9.206;2023-02-13T08:11:28;99142.41;;;1.25;71.44
32251;BME280;41295;48.518;9.206;2023-02-13T08:13:51;99149.41;;;1.29;71.45
32251;BME280;41295;48.518;9.206;2023-02-13T08:15:54;99153.66;;;1.29;72.66
32251;BME280;41295;48.518;9.206;2023-02-13T08:17:57;99150.34;;;1.31;72.19
32251;BME280;41295;48.518;9.206;2023-02-13T08:20:00;99152.91;;;1.31;72.10
32251;BME280;41295;48.518;9.206;2023-02-13T08:22:02;99151.25;;;1.34;72.34
32251;BME280;41295;48.518;9.206;2023-02-13T08:24:05;99154.69;;;1.34;72.24
32251;BME280;41295;48.518;9.206;2023-02-13T08:26:08;99146.06;;;1.32;72.76
32251;BME280;41295;48.518;9.206;2023-02-13T08:28:11;99147.44;;;1.50;71.34
32251;BME280;41295;48.518;9.206;2023-02-13T08:30:16;99146.31;;;1.41;72.12
32251;BME280;41295;48.518;9.206;2023-02-13T08:32:19;99143.63;;;1.37;71.95
32251;BME280;41295;48.518;9.206;2023-02-13T08:34:22;99143.72;;;1.40;71.79
32251;BME280;41295;48.518;9.206;2023-02-13T08:36:25;99142.84;;;1.39;72.63
32251;BME280;41295;48.518;9.206;2023-02-13T08:38:27;99143.88;;;1.44;72.47
32251;BME280;41295;48.518;9.206;2023-02-13T08:40:30;99144.69;;;1.43;72.36
32251;BME280;41295;48.518;9.206;2023-02-13T08:42:32;99139.56;;;1.45;73.28
32251;BME280;41295;48.518;9.206;2023-02-13T08:44:35;99130.41;;;1.53;73.03
32251;BME280;41295;48.518;9.206;2023-02-13T08:46:42;99137.63;;;1.67;72.88
32251;BME280;41295;48.518;9.206;2023-02-13T08:48:45;99130.72;;;1.64;72.68
32251;BME280;41295;48.518;9.206;2023-02-13T08:50:47;99134.94;;;1.62;72.93
32251;BME280;41295;48.518;9.206;2023-02-13T08:52:50;99131.47;;;1.62;72.92
32251;BME280;41295;48.518;9.206;2023-02-13T08:54:52;99140.44;;;1.75;73.25
32251;BME280;41295;48.518;9.206;2023-02-13T08:56:55;99136.84;;;1.70;72.72
32251;BME280;41295;48.518;9.206;2023-02-13T08:58:59;99132.44;;;1.65;73.65
32251;BME280;41295;48.518;9.206;2023-02-13T09:01:04;99132.47;;;1.67;73.71
32251;BME280;41295;48.518;9.206;2023-02-13T09:03:08;99133.97;;;1.89;73.25
32251;BME280;41295;48.518;9.206;2023-02-13T09:05:11;99133.41;;;2.01;72.78
32251;BME280;41295;48.518;9.206;2023-02-13T09:07:14;99129.19;;;2.03;73.09
32251;BME280;41295;48.518;9.206;2023-02-13T09:09:16;99124.59;;;1.93;73.33
32251;BME280;41295;48.518;9.206;2023-02-13T09:11:19;99120.97;;;1.85;73.20
32251;BME280;41295;48.518;9.206;2023-02-13T09:13:23;99129.34;;;1.77;74.08
32251;BME280;41295;48.518;9.206;2023-02-13T09:15:26;99127.25;;;1.95;73.61
32251;BME280;41295;48.518;9.206;2023-02-13T09:17:29;99122.66;;;1.84;73.53
32251;BME280;41295;48.518;9.206;2023-02-13T09:19:33;99117.47;;;1.83;74.29
32251;BME280;41295;48.518;9.206;2023-02-13T09:21:35;99113.31;;;1.88;74.54
32251;BME280;41295;48.518;9.206;2023-02-13T09:23:39;99111.63;;;1.88;74.90
32251;BME280;41295;48.518;9.206;2023-02-13T09:25:42;99110.88;;;1.92;74.70
32251;BME280;41295;48.518;9.206;2023-02-13T09:27:45;99116.22;;;2.00;74.27
32251;BME280;41295;48.518;9.206;2023-02-13T09:29:47;99120.91;;;2.15;74.98
32251;BME280;41295;48.518;9.206;2023-02-13T09:31:50;99116.31;;;2.03;74.30
32251;BME280;41295;48.518;9.206;2023-02-13T09:33:53;99118.06;;;2.04;75.39
32251;BME280;41295;48.518;9.206;2023-02-13T09:35:57;99119.09;;;2.11;75.02
32251;BME280;41295;48.518;9.206;2023-02-13T09:38:00;99115.69;;;2.12;75.35
32251;BME280;41295;48.518;9.206;2023-02-13T09:40:03;99112.38;;;2.18;75.13
32251;BME280;41295;48.518;9.206;2023-02-13T09:42:13;99115.09;;;2.23;75.30
32251;BME280;41295;48.518;9.206;2023-02-13T09:44:22;99114.31;;;2.27;75.17
32251;BME280;41295;48.518;9.206;2023-02-13T09:46:38;99117.81;;;2.29;75.75
32251;BME280;41295;48.518;9.206;2023-02-13T09:48:43;99120.44;;;2.31;75.67
32251;BME280;41295;48.518;9.206;2023-02-13T09:50:47;99122.16;;;2.30;76.59
32251;BME280;41295;48.518;9.206;2023-02-13T09:52:53;99114.56;;;2.36;75.50
32251;BME280;41295;48.518;9.206;2023-02-13T09:54:56;99114.59;;;2.38;75.70
32251;BME280;41295;48.518;9.206;2023-02-13T09:57:00;99117.19;;;2.38;76.01
32251;BME280;41295;48.518;9.206;2023-02-13T09:59:11;99118.97;;;2.40;75.85
32251;BME280;41295;48.518;9.206;2023-02-13T10:01:22;99116.41;;;2.40;76.13
32251;BME280;41295;48.518;9.206;2023-02-13T10:03:31;99120.03;;;2.49;76.07
32251;BME280;41295;48.518;9.206;2023-02-13T10:05:45;99119.63;;;2.69;75.32
32251;BME280;41295;48.518;9.206;2023-02-13T10:07:57;99119.13;;;2.82;75.22
32251;BME280;41295;48.518;9.206;2023-02-13T10:10:10;99122.47;;;3.18;74.60
32251;BME280;41295;48.518;9.206;2023-02-13T10:12:29;99127.44;;;3.09;74.35
32251;BME280;41295;48.518;9.206;2023-02-13T10:14:37;99129.75;;;2.96;74.75
32251;BME280;41295;48.518;9.206;2023-02-13T10:16:45;99125.25;;;2.87;75.63
32251;BME280;41295;48.518;9.206;2023-02-13T10:18:52;99127.72;;;2.84;75.47
32251;BME280;41295;48.518;9.206;2023-02-13T10:20:58;99126.88;;;2.84;75.79
32251;BME280;41295;48.518;9.206;2023-02-13T10:23:14;99130.34;;;2.86;76.33
32251;BME280;41295;48.518;9.206;2023-02-13T10:25:21;99127.03;;;2.92;76.82
32251;BME280;41295;48.518;9.206;2023-02-13T10:27:29;99135.69;;;2.94;76.53
32251;BME280;41295;48.518;9.206;2023-02-13T10:29:38;99130.06;;;3.10;75.95
32251;BME280;41295;48.518;9.206;2023-02-13T10:32:06;99125.38;;;3.32;74.65
32251;BME280;41295;48.518;9.206;2023-02-13T10:34:13;99126.38;;;3.39;74.14
32251;BME280;41295;48.518;9.206;2023-02-13T10:36:18;99120.34;;;3.39;74.50
32251;BME280;41295;48.518;9.206;2023-02-13T10:38:28;99124.91;;;3.52;74.55
32251;BME280;41295;48.518;9.206;2023-02-13T10:40:36;99124.84;;;3.49;73.96
32251;BME280;41295;48.518;9.206;2023-02-13T10:42:44;99119.44;;;3.36;74.32
32251;BME280;41295;48.518;9.206;2023-02-13T10:44:54;99117.97;;;3.49;74.60
32251;BME280;41295;48.518;9.206;2023-02-13T10:47:11;99115.19;;;3.39;74.57
32251;BME280;41295;48.518;9.206;2023-02-13T10:49:29;99112.53;;;3.35;74.97
32251;BME280;41295;48.518;9.206;2023-02-13T10:51:38;99108.47;;;3.47;74.93
32251;BME280;41295;48.518;9.206;2023-02-13T10:53:52;99106.59;;;3.40;74.75
32251;BME280;41295;48.518;9.206;2023-02-13T10:56:15;99109.09;;;3.36;74.88
32251;BME280;41295;48.518;9.206;2023-02-13T10:58:26;99101.41;;;3.38;75.12
32251;BME280;41295;48.518;9.206;2023-02-13T11:00:34;99099.72;;;3.40;75.11
32251;BME280;41295;48.518;9.206;2023-02-13T11:02:39;99104.97;;;3.45;75.44
32251;BME280;41295;48.518;9.206;2023-02-13T11:04:45;99104.97;;;3.45;75.22
32251;BME280;41295;48.518;9.206;2023-02-13T11:06:54;99096.44;;;3.47;75.41
32251;BME280;41295;48.518;9.206;2023-02-13T11:08:58;99098.31;;;3.55;75.14
32251;BME280;41295;48.518;9.206;2023-02-13T11:11:01;99095.81;;;3.59;74.94
32251;BME280;41295;48.518;9.206;2023-02-13T11:13:15;99095.03;;;3.64;74.75
32251;BME280;41295;48.518;9.206;2023-02-13T11:15:23;99087.69;;;3.84;73.85
32251;BME280;41295;48.518;9.206;2023-02-13T11:17:29;99082.41;;;3.78;74.10
32251;BME280;41295;48.518;9.206;2023-02-13T11:19:35;99091.03;;;3.78;74.35
32251;BME280;41295;48.518;9.206;2023-02-13T11:21:39;99082.41;;;3.78;74.16
32251;BME280;41295;48.518;9.206;2023-02-13T11:23:43;99083.28;;;3.78;74.72